sensor_id;sensor_type;location;lat;lon;timestamp;pressure;altitude;pressure_sealevel;temperature;humidity
50774;BME280;36745;48.544;8.918;2023-01-28T00:03:07;97850.75;;;0.25;89.50
50774;BME280;36745;48.544;8.918;2023-01-28T00:06:27;97849.94;;;0.25;89.04
50774;BME280;36745;48.544;8.918;2023-01-28T00:09:47;97856.88;;;0.22;89.96
50774;BME280;36745;48.544;8.918;2023-01-28T00:13:08;97852.66;;;0.25;90.15
50774;BME280;36745;48.544;8.918;2023-01-28T00:16:30;97850.75;;;0.25;90.05
50774;BME280;36745;48.544;8.918;2023-01-28T00:19:50;97844.19;;;0.26;90.44
50774;BME280;36745;48.544;8.918;2023-01-28T00:23:09;97856.06;;;0.22;90.12
50774;BME280;36745;48.544;8.918;2023-01-28T00:26:29;97850.59;;;0.18;90.59
50774;BME280;36745;48.544;8.918;2023-01-28T00:29:49;97842.53;;;0.22;90.99
50774;BME280;36745;48.544;8.918;2023-01-28T00:33:09;97838.13;;;0.14;90.30
50774;BME280;36745;48.544;8.918;2023-01-28T00:36:29;97844.78;;;0.16;90.54
50774;BME280;36745;48.544;8.918;2023-01-28T00:39:49;97840.19;;;0.20;89.94
50774;BME280;36745;48.544;8.918;2023-01-28T00:43:09;97829.84;;;0.26;89.56
50774;BME280;36745;48.544;8.918;2023-01-28T00:46:28;97838.47;;;0.31;89.56
50774;BME280;36745;48.544;8.918;2023-01-28T00:49:48;97833.63;;;0.21;89.35
50774;BME280;36745;48.544;8.918;2023-01-28T00:53:08;97827.66;;;0.35;89.14
50774;BME280;36745;48.544;8.918;2023-01-28T00:56:28;97829.06;;;0.06;88.68
50774;BME280;36745;48.544;8.918;2023-01-28T00:59:48;97833.53;;;0.18;88.39
50774;BME280;36745;48.544;8.918;2023-01-28T01:03:07;97829.50;;;0.08;88.31
50774;BME280;36745;48.544;8.918;2023-01-28T01:06:30;97834.94;;;0.08;88.25
50774;BME280;36745;48.544;8.918;2023-01-28T01:09:49;97836.91;;;0.11;88.08
50774;BME280;36745;48.544;8.918;2023-01-28T01:13:09;97835.91;;;0.19;88.00
50774;BME280;36745;48.544;8.918;2023-01-28T01:16:31;97836.34;;;0.02;87.81
50774;BME280;36745;48.544;8.918;2023-01-28T01:19:51;97835.66;;;0.05;89.10
50774;BME280;36745;48.544;8.918;2023-01-28T01:23:11;97840.69;;;0.07;88.54
50774;BME280;36745;48.544;8.918;2023-01-28T01:26:31;97843.50;;;0.10;89.09
50774;BME280;36745;48.544;8.918;2023-01-28T01:29:51;97847.47;;;0.16;88.68
50774;BME280;36745;48.544;8.918;2023-01-28T01:33:11;97850.53;;;0.15;88.37
50774;BME280;36745;48.544;8.918;2023-01-28T01:36:30;97848.13;;;0.10;88.13
50774;BME280;36745;48.544;8.918;2023-01-28T01:39:50;97864.00;;;0.11;88.52
50774;BME280;36745;48.544;8.918;2023-01-28T01:43:14;97844.47;;;0.02;88.62
50774;BME280;36745;48.544;8.918;2023-01-28T01:46:38;97840.94;;;-0.02;89.01
50774;BME280;36745;48.544;8.918;2023-01-28T01:50:05;97846.31;;;0.17;89.17
50774;BME280;36745;48.544;8.918;2023-01-28T01:53:26;97849.03;;;0.17;88.53
50774;BME280;36745;48.544;8.918;2023-01-28T01:56:48;97849.47;;;0.19;89.01
50774;BME280;36745;48.544;8.918;2023-01-28T02:00:09;97851.72;;;0.36;88.60
50774;BME280;36745;48.544;8.918;2023-01-28T02:03:58;97859.28;;;0.27;88.15
50774;BME280;36745;48.544;8.918;2023-01-28T02:07:19;97856.22;;;0.29;87.78
50774;BME280;36745;48.544;8.918;2023-01-28T02:10:39;97859.81;;;0.14;88.50
50774;BME280;36745;48.544;8.918;2023-01-28T02:14:01;97860.16;;;0.31;89.00
50774;BME280;36745;48.544;8.918;2023-01-28T02:17:23;97857.31;;;0.24;88.69
50774;BME280;36745;48.544;8.918;2023-01-28T02:31:33;97863.00;;;0.19;88.88
50774;BME280;36745;48.544;8.918;2023-01-28T02:35:17;97861.72;;;0.32;89.07
50774;BME280;36745;48.544;8.918;2023-01-28T02:38:45;97854.09;;;0.19;89.11
50774;BME280;36745;48.544;8.918;2023-01-28T02:42:10;97863.22;;;0.30;88.75
50774;BME280;36745;48.544;8.918;2023-01-28T02:45:32;97859.97;;;0.21;88.93
50774;BME280;36745;48.544;8.918;2023-01-28T02:49:15;97865.44;;;0.24;88.86
50774;BME280;36745;48.544;8.918;2023-01-28T02:52:52;97860.16;;;0.31;88.61
50774;BME280;36745;48.544;8.918;2023-01-28T02:56:56;97870.91;;;0.28;88.53
50774;BME280;36745;48.544;8.918;2023-01-28T03:00:25;97866.28;;;0.28;88.45
50774;BME280;36745;48.544;8.918;2023-01-28T03:04:07;97870.84;;;0.24;88.71
50774;BME280;36745;48.544;8.918;2023-01-28T03:07:30;97876.13;;;0.17;88.69
50774;BME280;36745;48.544;8.918;2023-01-28T03:10:56;97871.44;;;0.14;89.18
50774;BME280;36745;48.544;8.918;2023-01-28T03:14:35;97875.34;;;0.36;89.00
50774;BME280;36745;48.544;8.918;2023-01-28T03:21:55;97872.88;;;0.50;88.81
50774;BME280;36745;48.544;8.918;2023-01-28T03:25:35;97872.88;;;0.50;88.71
50774;BME280;36745;48.544;8.918;2023-01-28T03:29:18;97874.25;;;0.40;88.69
50774;BME280;36745;48.544;8.918;2023-01-28T03:32:58;97877.69;;;0.37;88.75
50774;BME280;36745;48.544;8.918;2023-01-28T03:36:36;97883.63;;;0.43;88.62
50774;BME280;36745;48.544;8.918;2023-01-28T03:40:12;97880.47;;;0.41;89.03
50774;BME280;36745;48.544;8.918;2023-01-28T03:43:32;97876.53;;;0.38;88.88
50774;BME280;36745;48.544;8.918;2023-01-28T03:46:53;97882.81;;;0.43;89.08
50774;BME280;36745;48.544;8.918;2023-01-28T03:50:13;97882.94;;;0.50;89.58
50774;BME280;36745;48.544;8.918;2023-01-28T03:53:33;97882.38;;;0.40;88.65
50774;BME280;36745;48.544;8.918;2023-01-28T03:56:53;97887.38;;;0.38;88.74
50774;BME280;36745;48.544;8.918;2023-01-28T04:00:13;97893.97;;;0.37;89.34
50774;BME280;36745;48.544;8.918;2023-01-28T04:03:35;97891.66;;;0.39;88.81
50774;BME280;36745;48.544;8.918;2023-01-28T04:06:56;97886.53;;;0.34;89.03
50774;BME280;36745;48.544;8.918;2023-01-28T04:10:15;97887.97;;;0.48;88.81
50774;BME280;36745;48.544;8.918;2023-01-28T04:13:35;97885.94;;;0.45;89.33
50774;BME280;36745;48.544;8.918;2023-01-28T04:16:55;97886.59;;;0.38;89.66
50774;BME280;36745;48.544;8.918;2023-01-28T04:20:16;97890.56;;;0.21;89.37
50774;BME280;36745;48.544;8.918;2023-01-28T04:23:36;97894.97;;;0.29;89.35
50774;BME280;36745;48.544;8.918;2023-01-28T04:26:56;97893.25;;;0.40;89.82
50774;BME280;36745;48.544;8.918;2023-01-28T04:30:16;97906.84;;;0.44;89.37
50774;BME280;36745;48.544;8.918;2023-01-28T04:33:36;97908.06;;;0.47;89.96
50774;BME280;36745;48.544;8.918;2023-01-28T04:36:56;97909.34;;;0.53;89.88
50774;BME280;36745;48.544;8.918;2023-01-28T04:40:16;97912.38;;;0.48;89.64
50774;BME280;36745;48.544;8.918;2023-01-28T04:43:35;97916.22;;;0.47;89.56
50774;BME280;36745;48.544;8.918;2023-01-28T04:46:55;97920.22;;;0.53;90.00
50774;BME280;36745;48.544;8.918;2023-01-28T04:50:15;97923.31;;;0.55;89.56
50774;BME280;36745;48.544;8.918;2023-01-28T04:53:35;97929.63;;;0.59;90.31
50774;BME280;36745;48.544;8.918;2023-01-28T04:56:55;97925.50;;;0.46;89.59
50774;BME280;36745;48.544;8.918;2023-01-28T05:00:15;97927.84;;;0.47;90.07
50774;BME280;36745;48.544;8.918;2023-01-28T05:03:35;97931.66;;;0.43;89.84
50774;BME280;36745;48.544;8.918;2023-01-28T05:06:55;97930.91;;;0.46;90.71
50774;BME280;36745;48.544;8.918;2023-01-28T05:10:15;97925.44;;;0.42;90.18
50774;BME280;36745;48.544;8.918;2023-01-28T05:13:35;97925.50;;;0.46;90.56
50774;BME280;36745;48.544;8.918;2023-01-28T05:16:54;97931.75;;;0.50;90.73
50774;BME280;36745;48.544;8.918;2023-01-28T05:20:14;97934.91;;;0.52;90.68
50774;BME280;36745;48.544;8.918;2023-01-28T05:23:34;97941.19;;;0.56;89.61
50774;BME280;36745;48.544;8.918;2023-01-28T05:26:54;97936.47;;;0.53;89.40
50774;BME280;36745;48.544;8.918;2023-01-28T05:30:14;97934.06;;;0.48;89.24
50774;BME280;36745;48.544;8.918;2023-01-28T05:33:33;97935.63;;;0.49;89.90
50774;BME280;36745;48.544;8.918;2023-01-28T05:36:53;97929.63;;;0.59;89.00
50774;BME280;36745;48.544;8.918;2023-01-28T05:40:13;97936.41;;;0.49;89.48
50774;BME280;36745;48.544;8.918;2023-01-28T05:43:33;97930.84;;;0.42;89.60
50774;BME280;36745;48.544;8.918;2023-01-28T05:46:53;97933.19;;;0.43;90.40
50774;BME280;36745;48.544;8.918;2023-01-28T05:50:13;97932.34;;;0.39;89.08
50774;BME280;36745;48.544;8.918;2023-01-28T05:53:33;97940.34;;;0.52;89.68
50774;BME280;36745;48.544;8.918;2023-01-28T05:56:53;97943.19;;;0.39;89.96
50774;BME280;36745;48.544;8.918;2023-01-28T06:00:13;97934.66;;;0.37;90.50
50774;BME280;36745;48.544;8.918;2023-01-28T06:03:34;97940.19;;;0.45;90.83
50774;BME280;36745;48.544;8.918;2023-01-28T06:06:53;97946.00;;;0.66;90.05
50774;BME280;36745;48.544;8.918;2023-01-28T06:10:14;97950.44;;;0.55;90.14
50774;BME280;36745;48.544;8.918;2023-01-28T06:13:36;97951.41;;;0.43;90.44
50774;BME280;36745;48.544;8.918;2023-01-28T06:16:56;97963.31;;;0.38;90.75
50774;BME280;36745;48.544;8.918;2023-01-28T06:20:16;97964.03;;;0.35;91.01
50774;BME280;36745;48.544;8.918;2023-01-28T06:23:35;97967.69;;;0.43;90.94
50774;BME280;36745;48.544;8.918;2023-01-28T06:26:55;97972.03;;;0.48;91.05
50774;BME280;36745;48.544;8.918;2023-01-28T06:30:15;97968.94;;;0.49;91.24
50774;BME280;36745;48.544;8.918;2023-01-28T06:33:35;97973.31;;;0.54;90.81
50774;BME280;36745;48.544;8.918;2023-01-28T06:36:55;97986.16;;;0.57;90.72
50774;BME280;36745;48.544;8.918;2023-01-28T06:40:15;97993.00;;;0.51;90.84
50774;BME280;36745;48.544;8.918;2023-01-28T06:43:35;97994.59;;;0.52;91.28
50774;BME280;36745;48.544;8.918;2023-01-28T06:46:56;97990.72;;;0.53;91.13
50774;BME280;36745;48.544;8.918;2023-01-28T06:50:15;97996.28;;;0.60;91.26
50774;BME280;36745;48.544;8.918;2023-01-28T06:53:35;98001.84;;;0.67;90.65
50774;BME280;36745;48.544;8.918;2023-01-28T06:56:55;97998.72;;;0.65;91.18
50774;BME280;36745;48.544;8.918;2023-01-28T07:00:15;97997.22;;;0.67;90.56
50774;BME280;36745;48.544;8.918;2023-01-28T07:03:35;98003.28;;;0.61;90.66
50774;BME280;36745;48.544;8.918;2023-01-28T07:06:55;98008.66;;;0.57;90.88
50774;BME280;36745;48.544;8.918;2023-01-28T07:10:15;98000.94;;;0.59;90.70
50774;BME280;36745;48.544;8.918;2023-01-28T07:13:35;98005.59;;;0.59;90.96
50774;BME280;36745;48.544;8.918;2023-01-28T07:16:55;98006.13;;;0.68;90.48
50774;BME280;36745;48.544;8.918;2023-01-28T07:20:15;98005.13;;;0.76;90.08
50774;BME280;36745;48.544;8.918;2023-01-28T07:23:35;98009.44;;;0.58;90.57
50774;BME280;36745;48.544;8.918;2023-01-28T07:26:55;98012.72;;;0.67;90.57
50774;BME280;36745;48.544;8.918;2023-01-28T07:30:16;98019.50;;;0.57;90.92
50774;BME280;36745;48.544;8.918;2023-01-28T07:33:35;98017.44;;;0.70;90.72
50774;BME280;36745;48.544;8.918;2023-01-28T07:36:55;98016.25;;;0.71;91.00
50774;BME280;36745;48.544;8.918;2023-01-28T07:40:15;98018.41;;;0.62;89.95
50774;BME280;36745;48.544;8.918;2023-01-28T07:43:35;98021.28;;;0.69;90.71
50774;BME280;36745;48.544;8.918;2023-01-28T07:46:55;98025.19;;;0.71;90.37
50774;BME280;36745;48.544;8.918;2023-01-28T07:50:17;98022.66;;;0.59;90.31
50774;BME280;36745;48.544;8.918;2023-01-28T07:53:37;98025.88;;;0.65;90.07
50774;BME280;36745;48.544;8.918;2023-01-28T07:56:57;98036.97;;;0.60;90.60
50774;BME280;36745;48.544;8.918;2023-01-28T08:00:18;98035.50;;;0.62;90.92
50774;BME280;36745;48.544;8.918;2023-01-28T08:03:38;98039.19;;;0.73;90.33
50774;BME280;36745;48.544;8.918;2023-01-28T08:06:58;98044.28;;;0.75;90.09
50774;BME280;36745;48.544;8.918;2023-01-28T08:10:18;98052.97;;;0.84;90.48
50774;BME280;36745;48.544;8.918;2023-01-28T08:13:38;98055.34;;;0.86;91.29
50774;BME280;36745;48.544;8.918;2023-01-28T08:16:58;98065.31;;;1.01;90.19
50774;BME280;36745;48.544;8.918;2023-01-28T08:20:17;98064.19;;;0.82;90.35
50774;BME280;36745;48.544;8.918;2023-01-28T08:23:37;98055.41;;;0.89;89.40
50774;BME280;36745;48.544;8.918;2023-01-28T08:26:57;98062.31;;;1.06;88.52
50774;BME280;36745;48.544;8.918;2023-01-28T08:30:17;98058.56;;;0.91;88.26
50774;BME280;36745;48.544;8.918;2023-01-28T08:33:37;98063.53;;;0.89;89.95
50774;BME280;36745;48.544;8.918;2023-01-28T08:36:56;98072.19;;;0.95;88.80
50774;BME280;36745;48.544;8.918;2023-01-28T08:40:16;98068.69;;;0.94;89.28
50774;BME280;36745;48.544;8.918;2023-01-28T08:43:36;98070.75;;;1.01;89.80
50774;BME280;36745;48.544;8.918;2023-01-28T08:46:56;98066.16;;;1.05;89.86
50774;BME280;36745;48.544;8.918;2023-01-28T08:50:16;98070.94;;;1.11;89.92
50774;BME280;36745;48.544;8.918;2023-01-28T08:53:37;98073.97;;;1.06;89.27
50774;BME280;36745;48.544;8.918;2023-01-28T08:56:56;98072.81;;;1.07;89.97
50774;BME280;36745;48.544;8.918;2023-01-28T09:00:17;98074.22;;;1.20;89.59
50774;BME280;36745;48.544;8.918;2023-01-28T09:03:37;98064.78;;;1.14;89.69
50774;BME280;36745;48.544;8.918;2023-01-28T09:06:57;98074.22;;;1.20;89.75
50774;BME280;36745;48.544;8.918;2023-01-28T09:10:17;98079.03;;;1.31;89.34
50774;BME280;36745;48.544;8.918;2023-01-28T09:13:38;98085.81;;;1.17;88.56
50774;BME280;36745;48.544;8.918;2023-01-28T09:16:58;98080.63;;;1.32;89.46
50774;BME280;36745;48.544;8.918;2023-01-28T09:20:18;98090.06;;;1.38;88.86
50774;BME280;36745;48.544;8.918;2023-01-28T09:23:38;98079.19;;;1.38;88.65
50774;BME280;36745;48.544;8.918;2023-01-28T09:26:58;98085.22;;;1.27;88.74
50774;BME280;36745;48.544;8.918;2023-01-28T09:30:18;98094.03;;;1.44;89.05
50774;BME280;36745;48.544;8.918;2023-01-28T09:33:39;98096.47;;;1.49;88.82
50774;BME280;36745;48.544;8.918;2023-01-28T09:36:59;98098.13;;;1.57;88.69
50774;BME280;36745;48.544;8.918;2023-01-28T09:40:35;98103.00;;;1.67;88.64
50774;BME280;36745;48.544;8.918;2023-01-28T09:44:05;98104.81;;;1.82;88.36
50774;BME280;36745;48.544;8.918;2023-01-28T09:47:29;98110.25;;;1.82;88.48
50774;BME280;36745;48.544;8.918;2023-01-28T09:50:52;98107.91;;;1.84;87.40
50774;BME280;36745;48.544;8.918;2023-01-28T09:54:23;98111.69;;;1.76;87.10
50774;BME280;36745;48.544;8.918;2023-01-28T09:57:51;98112.28;;;1.89;86.44
50774;BME280;36745;48.544;8.918;2023-01-28T10:01:35;98120.28;;;1.78;86.58
50774;BME280;36745;48.544;8.918;2023-01-28T10:05:12;98120.97;;;1.75;85.66
50774;BME280;36745;48.544;8.918;2023-01-28T10:15:54;98104.81;;;2.08;85.32
50774;BME280;36745;48.544;8.918;2023-01-28T10:19:24;98101.63;;;2.29;86.33
50774;BME280;36745;48.544;8.918;2023-01-28T10:22:50;98103.56;;;2.55;86.74
50774;BME280;36745;48.544;8.918;2023-01-28T10:26:21;98108.19;;;2.25;83.74
50774;BME280;36745;48.544;8.918;2023-01-28T10:29:41;98106.19;;;2.22;84.15
50774;BME280;36745;48.544;8.918;2023-01-28T10:33:18;98106.34;;;2.32;84.15
50774;BME280;36745;48.544;8.918;2023-01-28T10:36:38;98106.13;;;2.18;83.02
50774;BME280;36745;48.544;8.918;2023-01-28T10:39:59;98102.22;;;2.16;83.28
50774;BME280;36745;48.544;8.918;2023-01-28T10:43:22;98101.47;;;2.19;82.34
50774;BME280;36745;48.544;8.918;2023-01-28T10:46:44;98099.88;;;2.14;82.22
50774;BME280;36745;48.544;8.918;2023-01-28T10:50:15;98092.81;;;2.09;82.38
50774;BME280;36745;48.544;8.918;2023-01-28T10:53:40;98095.94;;;2.11;82.44
50774;BME280;36745;48.544;8.918;2023-01-28T10:57:02;98107.91;;;2.33;83.07
50774;BME280;36745;48.544;8.918;2023-01-28T11:00:25;98091.13;;;2.28;80.25
50774;BME280;36745;48.544;8.918;2023-01-28T11:03:57;98097.00;;;2.30;81.96
50774;BME280;36745;48.544;8.918;2023-01-28T11:07:19;98100.22;;;2.39;81.19
50774;BME280;36745;48.544;8.918;2023-01-28T11:10:39;98104.94;;;2.42;82.57
50774;BME280;36745;48.544;8.918;2023-01-28T11:13:59;98097.13;;;2.70;82.02
50774;BME280;36745;48.544;8.918;2023-01-28T11:17:21;98088.50;;;2.94;81.94
50774;BME280;36745;48.544;8.918;2023-01-28T11:20:53;98089.84;;;2.78;80.39
50774;BME280;36745;48.544;8.918;2023-01-28T11:24:22;98090.50;;;2.68;80.48
50774;BME280;36745;48.544;8.918;2023-01-28T11:27:51;98092.34;;;2.60;80.65
50774;BME280;36745;48.544;8.918;2023-01-28T11:31:14;98094.25;;;2.56;79.37
50774;BME280;36745;48.544;8.918;2023-01-28T11:34:34;98099.19;;;2.47;80.81
50774;BME280;36745;48.544;8.918;2023-01-28T11:37:55;98093.53;;;2.59;80.80
50774;BME280;36745;48.544;8.918;2023-01-28T11:41:15;98091.19;;;2.61;80.00
50774;BME280;36745;48.544;8.918;2023-01-28T11:44:35;98089.44;;;2.46;79.10
50774;BME280;36745;48.544;8.918;2023-01-28T11:48:25;98097.03;;;2.33;79.68
50774;BME280;36745;48.544;8.918;2023-01-28T11:55:44;98099.22;;;2.24;80.06
50774;BME280;36745;48.544;8.918;2023-01-28T12:03:40;98085.03;;;2.38;81.44
50774;BME280;36745;48.544;8.918;2023-01-28T12:10:02;98083.38;;;2.60;80.25
50774;BME280;36745;48.544;8.918;2023-01-28T12:21:05;98090.78;;;2.59;80.33
50774;BME280;36745;48.544;8.918;2023-01-28T12:24:51;98086.81;;;2.53;80.38
50774;BME280;36745;48.544;8.918;2023-01-28T12:40:18;98098.56;;;2.31;79.73
50774;BME280;36745;48.544;8.918;2023-01-28T12:47:30;98104.00;;;2.04;80.13
50774;BME280;36745;48.544;8.918;2023-01-28T12:50:57;98096.25;;;1.84;80.45
50774;BME280;36745;48.544;8.918;2023-01-28T12:54:38;98105.41;;;1.72;81.58
50774;BME280;36745;48.544;8.918;2023-01-28T12:58:00;98099.84;;;1.65;82.10
50774;BME280;36745;48.544;8.918;2023-01-28T13:01:28;98095.38;;;1.76;81.79
50774;BME280;36745;48.544;8.918;2023-01-28T13:05:11;98094.63;;;1.79;81.97
50774;BME280;36745;48.544;8.918;2023-01-28T13:08:32;98092.47;;;1.88;82.07
50774;BME280;36745;48.544;8.918;2023-01-28T13:11:56;98090.72;;;1.99;83.04
50774;BME280;36745;48.544;8.918;2023-01-28T13:15:18;98096.63;;;2.05;83.60
50774;BME280;36745;48.544;8.918;2023-01-28T13:22:09;98097.84;;;2.11;82.49
50774;BME280;36745;48.544;8.918;2023-01-28T13:25:32;98094.94;;;1.97;81.89
50774;BME280;36745;48.544;8.918;2023-01-28T13:28:53;98094.53;;;1.72;82.07
50774;BME280;36745;48.544;8.918;2023-01-28T13:32:31;98092.47;;;1.88;82.93
50774;BME280;36745;48.544;8.918;2023-01-28T13:35:52;98098.22;;;1.83;83.46
50774;BME280;36745;48.544;8.918;2023-01-28T13:42:33;98101.03;;;1.90;82.50
50774;BME280;36745;48.544;8.918;2023-01-28T13:46:02;98102.59;;;1.91;83.30
50774;BME280;36745;48.544;8.918;2023-01-28T13:49:38;98104.31;;;1.99;83.36
50774;BME280;36745;48.544;8.918;2023-01-28T13:53:03;98096.88;;;1.96;83.51
50774;BME280;36745;48.544;8.918;2023-01-28T13:56:38;98104.81;;;2.08;83.71
50774;BME280;36745;48.544;8.918;2023-01-28T14:04:05;98120.09;;;2.17;82.56
50774;BME280;36745;48.544;8.918;2023-01-28T14:11:25;98108.41;;;1.90;83.43
50774;BME280;36745;48.544;8.918;2023-01-28T14:18:35;98113.88;;;2.16;83.16
50774;BME280;36745;48.544;8.918;2023-01-28T14:21:57;98113.88;;;2.16;83.08
50774;BME280;36745;48.544;8.918;2023-01-28T14:25:27;98116.97;;;2.15;83.03
50774;BME280;36745;48.544;8.918;2023-01-28T14:29:13;98119.03;;;1.98;82.59
50774;BME280;36745;48.544;8.918;2023-01-28T14:32:34;98127.81;;;1.65;83.90
50774;BME280;36745;48.544;8.918;2023-01-28T14:35:55;98130.28;;;1.74;83.88
50774;BME280;36745;48.544;8.918;2023-01-28T14:39:21;98133.38;;;1.73;83.94
50774;BME280;36745;48.544;8.918;2023-01-28T14:42:45;98144.53;;;1.90;84.40
50774;BME280;36745;48.544;8.918;2023-01-28T14:49:56;98145.81;;;1.96;83.44
50774;BME280;36745;48.544;8.918;2023-01-28T14:57:15;98150.16;;;2.01;83.84
50774;BME280;36745;48.544;8.918;2023-01-28T15:00:37;98154.13;;;1.84;83.79
50774;BME280;36745;48.544;8.918;2023-01-28T15:03:58;98153.41;;;1.64;84.21
50774;BME280;36745;48.544;8.918;2023-01-28T15:07:20;98152.75;;;1.71;84.09
50774;BME280;36745;48.544;8.918;2023-01-28T15:10:40;98159.16;;;1.82;84.69
50774;BME280;36745;48.544;8.918;2023-01-28T15:14:00;98158.44;;;1.85;83.72
50774;BME280;36745;48.544;8.918;2023-01-28T15:17:25;98165.41;;;1.83;84.14
50774;BME280;36745;48.544;8.918;2023-01-28T15:20:47;98163.19;;;1.69;84.30
50774;BME280;36745;48.544;8.918;2023-01-28T15:24:11;98170.75;;;1.79;84.78
50774;BME280;36745;48.544;8.918;2023-01-28T15:27:32;98178.59;;;1.84;85.29
50774;BME280;36745;48.544;8.918;2023-01-28T15:30:51;98186.59;;;1.96;84.27
50774;BME280;36745;48.544;8.918;2023-01-28T15:34:14;98192.16;;;2.03;84.46
50774;BME280;36745;48.544;8.918;2023-01-28T15:37:34;98185.69;;;1.89;84.61
50774;BME280;36745;48.544;8.918;2023-01-28T15:40:57;98190.06;;;1.74;84.60
50774;BME280;36745;48.544;8.918;2023-01-28T15:44:20;98203.56;;;1.48;85.10
50774;BME280;36745;48.544;8.918;2023-01-28T15:47:42;98202.13;;;1.54;86.36
50774;BME280;36745;48.544;8.918;2023-01-28T15:51:08;98210.13;;;1.66;86.17
50774;BME280;36745;48.544;8.918;2023-01-28T15:54:41;98206.09;;;1.79;85.68
50774;BME280;36745;48.544;8.918;2023-01-28T16:01:44;98221.25;;;1.80;85.41
50774;BME280;36745;48.544;8.918;2023-01-28T16:05:05;98215.44;;;1.59;85.68
50774;BME280;36745;48.544;8.918;2023-01-28T16:08:41;98217.63;;;1.73;85.43
50774;BME280;36745;48.544;8.918;2023-01-28T16:12:05;98219.75;;;1.83;85.37
50774;BME280;36745;48.544;8.918;2023-01-28T16:15:26;98220.47;;;1.80;85.77
50774;BME280;36745;48.544;8.918;2023-01-28T16:18:48;98217.41;;;1.81;85.25
50774;BME280;36745;48.544;8.918;2023-01-28T16:22:19;98230.44;;;1.72;85.54
50774;BME280;36745;48.544;8.918;2023-01-28T16:25:40;98230.44;;;1.72;86.25
50774;BME280;36745;48.544;8.918;2023-01-28T16:29:13;98239.72;;;1.71;85.83
50774;BME280;36745;48.544;8.918;2023-01-28T16:35:53;98245.59;;;1.54;86.28
50774;BME280;36745;48.544;8.918;2023-01-28T16:39:13;98239.16;;;1.43;86.50
50774;BME280;36745;48.544;8.918;2023-01-28T16:42:33;98238.19;;;1.51;86.74
50774;BME280;36745;48.544;8.918;2023-01-28T16:45:53;98242.75;;;1.47;85.87
50774;BME280;36745;48.544;8.918;2023-01-28T16:49:13;98231.47;;;1.45;86.73
50774;BME280;36745;48.544;8.918;2023-01-28T16:52:32;98238.47;;;1.46;86.71
50774;BME280;36745;48.544;8.918;2023-01-28T16:55:52;98236.88;;;1.45;86.66
50774;BME280;36745;48.544;8.918;2023-01-28T16:59:14;98236.88;;;1.45;86.64
50774;BME280;36745;48.544;8.918;2023-01-28T17:02:34;98238.19;;;1.51;87.04
50774;BME280;36745;48.544;8.918;2023-01-28T17:05:54;98247.19;;;1.55;86.08
50774;BME280;36745;48.544;8.918;2023-01-28T17:09:13;98245.59;;;1.54;86.80
50774;BME280;36745;48.544;8.918;2023-01-28T17:12:33;98233.16;;;1.53;87.17
50774;BME280;36745;48.544;8.918;2023-01-28T17:15:53;98241.09;;;1.61;86.69
50774;BME280;36745;48.544;8.918;2023-01-28T17:19:15;98242.75;;;1.66;86.99
50774;BME280;36745;48.544;8.918;2023-01-28T17:22:35;98245.59;;;1.54;86.58
50774;BME280;36745;48.544;8.918;2023-01-28T17:25:55;98241.19;;;1.46;87.46
50774;BME280;36745;48.544;8.918;2023-01-28T17:29:15;98248.75;;;1.56;87.45
50774;BME280;36745;48.544;8.918;2023-01-28T17:32:35;98253.19;;;1.64;87.01
50774;BME280;36745;48.544;8.918;2023-01-28T17:35:54;98261.13;;;1.53;86.87
50774;BME280;36745;48.544;8.918;2023-01-28T17:39:15;98267.31;;;1.15;87.13
50774;BME280;36745;48.544;8.918;2023-01-28T17:42:34;98278.91;;;1.32;87.40
50774;BME280;36745;48.544;8.918;2023-01-28T17:45:55;98273.91;;;1.34;87.18
50774;BME280;36745;48.544;8.918;2023-01-28T17:49:15;98272.63;;;1.47;86.92
50774;BME280;36745;48.544;8.918;2023-01-28T17:52:34;98284.38;;;1.51;87.06
50774;BME280;36745;48.544;8.918;2023-01-28T17:55:54;98270.00;;;1.50;87.61
50774;BME280;36745;48.544;8.918;2023-01-28T17:59:14;98277.50;;;1.38;87.24
50774;BME280;36745;48.544;8.918;2023-01-28T18:02:34;98275.78;;;1.49;87.77
50774;BME280;36745;48.544;8.918;2023-01-28T18:05:58;98279.63;;;1.48;87.41
50774;BME280;36745;48.544;8.918;2023-01-28T18:09:18;98283.06;;;1.45;87.36
50774;BME280;36745;48.544;8.918;2023-01-28T18:12:38;98275.50;;;1.54;86.80
50774;BME280;36745;48.544;8.918;2023-01-28T18:15:58;98275.78;;;1.49;87.02
50774;BME280;36745;48.544;8.918;2023-01-28T18:19:18;98279.00;;;1.54;86.98
50774;BME280;36745;48.544;8.918;2023-01-28T18:22:38;98283.50;;;1.47;86.65
50774;BME280;36745;48.544;8.918;2023-01-28T18:25:59;98284.78;;;1.53;86.79
50774;BME280;36745;48.544;8.918;2023-01-28T18:29:20;98278.78;;;1.44;86.71
50774;BME280;36745;48.544;8.918;2023-01-28T18:32:42;98302.00;;;1.41;87.43
50774;BME280;36745;48.544;8.918;2023-01-28T18:36:04;98292.94;;;1.53;87.09
50774;BME280;36745;48.544;8.918;2023-01-28T18:39:27;98289.81;;;1.51;86.84
50774;BME280;36745;48.544;8.918;2023-01-28T18:42:48;98291.06;;;1.38;87.30
50774;BME280;36745;48.544;8.918;2023-01-28T18:46:11;98299.66;;;1.40;87.57
50774;BME280;36745;48.544;8.918;2023-01-28T18:49:31;98282.47;;;1.36;87.69
50774;BME280;36745;48.544;8.918;2023-01-28T18:52:52;98282.47;;;1.36;87.44
50774;BME280;36745;48.544;8.918;2023-01-28T18:56:12;98285.78;;;1.45;87.54
50774;BME280;36745;48.544;8.918;2023-01-28T18:59:32;98293.56;;;1.46;87.14
50774;BME280;36745;48.544;8.918;2023-01-28T19:02:51;98288.06;;;1.43;86.46
50774;BME280;36745;48.544;8.918;2023-01-28T19:06:11;98299.72;;;1.43;86.91
50774;BME280;36745;48.544;8.918;2023-01-28T19:09:31;98299.38;;;1.45;86.57
50774;BME280;36745;48.544;8.918;2023-01-28T19:12:51;98305.22;;;1.47;86.81
50774;BME280;36745;48.544;8.918;2023-01-28T19:16:11;98301.22;;;1.41;87.11
50774;BME280;36745;48.544;8.918;2023-01-28T19:19:31;98301.22;;;1.41;87.74
50774;BME280;36745;48.544;8.918;2023-01-28T19:22:51;98312.81;;;1.38;87.13
50774;BME280;36745;48.544;8.918;2023-01-28T19:26:11;98311.22;;;1.37;87.46
50774;BME280;36745;48.544;8.918;2023-01-28T19:29:32;98306.94;;;1.36;86.70
50774;BME280;36745;48.544;8.918;2023-01-28T19:32:52;98314.66;;;1.34;87.28
50774;BME280;36745;48.544;8.918;2023-01-28T19:36:12;98305.22;;;1.27;86.82
50774;BME280;36745;48.544;8.918;2023-01-28T19:39:32;98307.66;;;1.33;87.66